createdAt,value
2023-04-18T00:01:40.388Z,11.06
2023-04-18T00:04:09.104Z,11.10
2023-04-18T00:06:37.314Z,11.16
2023-04-18T00:09:05.470Z,11.16
2023-04-18T00:11:34.650Z,11.09
2023-04-18T00:14:03.500Z,10.87
2023-04-18T00:16:34.403Z,10.75
2023-04-18T00:19:03.687Z,10.82
2023-04-18T00:21:33.213Z,10.83
2023-04-18T00:24:01.157Z,10.87
2023-04-18T00:26:29.163Z,10.96
2023-04-18T00:28:58.530Z,10.94
2023-04-18T00:31:26.679Z,10.96
2023-04-18T00:33:54.630Z,10.98
2023-04-18T00:36:24.824Z,10.89
2023-04-18T00:38:52.812Z,10.85
2023-04-18T00:41:22.586Z,10.91
2023-04-18T00:43:50.617Z,10.94
2023-04-18T00:46:18.468Z,10.91
2023-04-18T00:48:48.137Z,10.96
2023-04-18T00:51:16.000Z,10.96
2023-04-18T00:53:44.897Z,10.85
2023-04-18T00:56:12.963Z,10.86
2023-04-18T00:58:41.191Z,10.82
2023-04-18T01:01:09.852Z,10.79
2023-04-18T01:03:39.801Z,10.88
2023-04-18T01:06:08.156Z,10.95
2023-04-18T01:08:36.646Z,10.95
2023-04-18T01:11:04.698Z,10.98
2023-04-18T01:13:32.538Z,11.00
2023-04-18T01:16:00.583Z,10.99
2023-04-18T01:18:31.717Z,11.00
2023-04-18T01:21:00.583Z,10.97
2023-04-18T01:23:29.032Z,11.03
2023-04-18T01:25:56.941Z,11.06
2023-04-18T01:28:27.914Z,11.08
2023-04-18T01:30:57.181Z,11.03
2023-04-18T01:33:25.016Z,11.08
2023-04-18T01:35:53.016Z,11.09
2023-04-18T01:38:20.970Z,11.13
2023-04-18T01:40:49.565Z,11.08
2023-04-18T01:43:17.550Z,11.11
2023-04-18T01:45:45.610Z,11.12
2023-04-18T01:48:13.662Z,11.13
2023-04-18T01:50:43.005Z,11.03
2023-04-18T01:53:11.824Z,10.98
2023-04-18T01:55:39.908Z,11.04
2023-04-18T01:58:07.947Z,11.04
2023-04-18T02:00:37.690Z,10.98
2023-04-18T02:03:07.009Z,10.89
2023-04-18T02:05:37.758Z,10.79
2023-04-18T02:08:08.617Z,10.72
2023-04-18T02:10:39.258Z,10.74
2023-04-18T02:13:07.364Z,10.70
2023-04-18T02:15:35.886Z,10.69
2023-04-18T02:18:04.132Z,10.65
2023-04-18T02:20:33.889Z,10.80
2023-04-18T02:23:03.614Z,10.83
2023-04-18T02:25:31.701Z,10.94
2023-04-18T02:27:59.951Z,10.94
2023-04-18T02:30:27.883Z,10.92
2023-04-18T02:32:59.533Z,10.95
2023-04-18T02:35:28.355Z,10.96
2023-04-18T02:47:24.319Z,10.60
2023-04-18T02:49:52.249Z,10.65
2023-04-18T02:55:37.780Z,10.60
2023-04-18T02:58:06.172Z,10.62
2023-04-18T03:00:39.941Z,10.66
2023-04-18T03:03:11.113Z,10.60
2023-04-18T03:05:53.679Z,10.65
2023-04-18T03:08:21.628Z,10.56
2023-04-18T03:10:49.890Z,10.47
2023-04-18T03:13:21.419Z,10.50
2023-04-18T03:15:49.633Z,10.69
2023-04-18T03:18:17.862Z,10.57
2023-04-18T03:20:45.884Z,10.68
2023-04-18T03:23:13.880Z,10.74
2023-04-18T03:25:41.832Z,10.79
2023-04-18T03:28:10.194Z,10.58
2023-04-18T03:30:38.042Z,10.51
2023-04-18T03:33:07.200Z,10.53
2023-04-18T03:35:35.247Z,10.48
2023-04-18T03:38:03.230Z,10.52
2023-04-18T03:40:36.206Z,10.59
2023-04-18T03:43:10.963Z,10.66
2023-04-18T03:45:39.120Z,10.68
2023-04-18T03:48:07.505Z,10.75
2023-04-18T03:50:40.543Z,10.74
2023-04-18T03:53:11.461Z,10.79
2023-04-18T03:55:39.752Z,10.79
2023-04-18T03:58:08.376Z,10.81
2023-04-18T04:00:36.595Z,10.81
2023-04-18T04:03:11.114Z,10.87
2023-04-18T04:05:40.987Z,10.80
2023-04-18T04:08:09.129Z,10.73
2023-04-18T04:10:37.423Z,10.77
2023-04-18T04:13:05.543Z,10.73
2023-04-18T04:15:38.712Z,10.65
2023-04-18T04:18:09.161Z,10.78
2023-04-18T04:20:40.422Z,10.88
2023-04-18T04:23:13.831Z,10.88
2023-04-18T04:25:45.674Z,10.94
2023-04-18T04:28:24.805Z,10.97
2023-04-18T04:30:58.425Z,11.03
2023-04-18T04:33:28.774Z,11.07
2023-04-18T04:36:01.454Z,11.00
2023-04-18T04:38:31.960Z,10.94
2023-04-18T04:41:00.371Z,10.98
2023-04-18T04:43:29.403Z,10.89
2023-04-18T04:45:58.280Z,10.84
2023-04-18T04:48:26.333Z,10.50
2023-04-18T04:50:57.074Z,10.42
2023-04-18T04:53:27.274Z,10.17
2023-04-18T04:55:56.753Z,10.13
2023-04-18T04:58:25.071Z,10.31
2023-04-18T05:01:31.385Z,10.25
2023-04-18T05:04:00.381Z,10.18
2023-04-18T05:06:28.548Z,10.18
2023-04-18T05:08:57.765Z,10.02
2023-04-18T05:11:25.856Z,10.16
2023-04-18T05:13:53.784Z,10.09
2023-04-18T05:16:22.004Z,10.12
2023-04-18T05:18:50.049Z,10.12
2023-04-18T05:21:18.049Z,10.18
2023-04-18T05:23:46.680Z,10.31
2023-04-18T05:26:14.738Z,10.43
2023-04-18T05:28:42.873Z,10.44
2023-04-18T05:31:10.859Z,10.69
2023-04-18T05:33:38.927Z,10.91
2023-04-18T05:36:07.838Z,10.91
2023-04-18T05:38:35.972Z,11.00
2023-04-18T05:41:04.008Z,11.20
2023-04-18T05:43:32.094Z,11.15
2023-04-18T05:46:00.045Z,11.11
2023-04-18T05:48:28.157Z,11.35
2023-04-18T05:50:56.374Z,11.30
2023-04-18T05:53:24.356Z,11.11
2023-04-18T05:55:52.400Z,10.98
2023-04-18T05:58:20.523Z,10.65
2023-04-18T06:00:48.523Z,10.51
2023-04-18T06:03:16.934Z,10.59
2023-04-18T06:05:45.363Z,10.63
2023-04-18T06:08:13.487Z,10.82
2023-04-18T06:10:41.586Z,10.97
2023-04-18T06:13:09.739Z,11.03
2023-04-18T06:15:37.871Z,11.06
2023-04-18T06:18:05.903Z,11.16
2023-04-18T06:20:34.470Z,11.15
2023-04-18T06:23:02.453Z,11.47
2023-04-18T06:25:30.497Z,11.57
2023-04-18T06:27:58.394Z,11.57
2023-04-18T06:30:26.513Z,11.52
2023-04-18T06:32:54.485Z,11.39
2023-04-18T06:35:23.272Z,11.44
2023-04-18T06:37:52.760Z,11.60
2023-04-18T06:40:20.673Z,11.58
2023-04-18T06:42:48.934Z,11.88
2023-04-18T06:45:16.900Z,12.16
2023-04-18T06:47:45.228Z,12.34
2023-04-18T06:50:14.408Z,12.74
2023-04-18T06:52:45.719Z,12.45
2023-04-18T06:55:14.159Z,12.54
2023-04-18T06:57:42.885Z,12.78
2023-04-18T07:00:10.920Z,12.97
2023-04-18T07:02:40.152Z,13.00
2023-04-18T07:05:08.800Z,12.82
2023-04-18T07:07:45.770Z,12.44
2023-04-18T07:10:13.946Z,12.32
2023-04-18T07:12:41.918Z,12.35
2023-04-18T07:15:10.663Z,11.98
2023-04-18T07:17:38.715Z,11.83
2023-04-18T07:20:07.565Z,12.00
2023-04-18T07:22:35.509Z,11.74
2023-04-18T07:25:03.913Z,11.71
2023-04-18T07:27:31.825Z,11.61
2023-04-18T07:29:59.837Z,11.37
2023-04-18T07:32:27.906Z,11.64
2023-04-18T07:34:57.642Z,11.73
2023-04-18T07:37:26.458Z,11.50
2023-04-18T07:39:54.715Z,11.62
2023-04-18T07:42:22.774Z,11.68
2023-04-18T07:44:50.793Z,11.69
2023-04-18T07:47:22.356Z,11.79
2023-04-18T07:49:51.081Z,11.98
2023-04-18T07:52:19.250Z,12.15
2023-04-18T07:54:47.290Z,12.16
2023-04-18T07:57:15.690Z,12.28
2023-04-18T07:59:43.645Z,12.30
2023-04-18T08:02:11.889Z,12.37
2023-04-18T08:04:40.096Z,12.49
2023-04-18T08:07:08.278Z,12.41
2023-04-18T08:09:36.328Z,12.30
2023-04-18T08:12:04.504Z,12.20
2023-04-18T08:14:32.601Z,12.42
2023-04-18T08:17:00.510Z,12.31
2023-04-18T08:19:28.463Z,12.42
2023-04-18T08:22:09.462Z,12.36
2023-04-18T08:24:44.532Z,12.21
2023-04-18T08:27:19.266Z,12.30
2023-04-18T08:29:47.373Z,12.20
2023-04-18T08:32:15.327Z,12.70
2023-04-18T08:34:43.722Z,12.79
2023-04-18T08:37:11.775Z,12.57
2023-04-18T08:39:39.740Z,12.68
2023-04-18T08:42:10.635Z,12.53
2023-04-18T08:44:38.630Z,12.53
2023-04-18T08:47:10.079Z,12.95
2023-04-18T08:49:38.484Z,13.17
2023-04-18T08:52:14.236Z,13.68
2023-04-18T08:54:43.383Z,13.98
2023-04-18T08:57:12.826Z,13.73
2023-04-18T08:59:43.205Z,13.94
2023-04-18T09:02:13.590Z,13.69
2023-04-18T09:04:49.391Z,13.46
2023-04-18T09:07:18.914Z,13.92
2023-04-18T09:09:48.057Z,14.32
2023-04-18T09:12:22.877Z,15.50
2023-04-18T09:14:58.040Z,16.46
2023-04-18T09:17:43.953Z,17.43
2023-04-18T09:20:15.648Z,19.21
2023-04-18T09:22:52.167Z,20.05
2023-04-18T09:25:30.802Z,20.05
2023-04-18T09:28:01.108Z,19.82
2023-04-18T09:30:38.234Z,20.29
2023-04-18T09:33:11.774Z,20.93
2023-04-18T09:35:39.829Z,20.64
2023-04-18T09:38:08.363Z,19.58
2023-04-18T09:40:36.210Z,19.14
2023-04-18T09:43:22.146Z,18.24
2023-04-18T09:45:50.843Z,17.44
2023-04-18T09:48:18.578Z,17.22
2023-04-18T09:50:47.735Z,16.84
2023-04-18T09:53:21.057Z,16.58
2023-04-18T09:55:57.480Z,16.32
2023-04-18T09:58:29.564Z,16.05
2023-04-18T10:00:58.348Z,15.90
2023-04-18T10:03:33.161Z,15.46
2023-04-18T10:06:01.444Z,14.95
2023-04-18T10:08:29.637Z,15.00
2023-04-18T10:10:59.065Z,15.03
2023-04-18T10:13:28.946Z,14.85
2023-04-18T10:15:57.507Z,14.60
2023-04-18T10:18:25.720Z,14.30
2023-04-18T10:21:03.346Z,14.20
2023-04-18T10:23:31.369Z,14.38
2023-04-18T10:25:59.634Z,14.64
2023-04-18T10:28:28.390Z,14.83
2023-04-18T10:31:05.991Z,15.59
2023-04-18T10:33:40.940Z,16.12
2023-04-18T10:36:10.688Z,16.13
2023-04-18T10:38:50.269Z,16.47
2023-04-18T10:41:25.522Z,16.64
2023-04-18T10:44:23.359Z,16.36
2023-04-18T10:46:51.780Z,16.86
2023-04-18T10:49:31.095Z,17.63
2023-04-18T10:52:02.080Z,17.64
2023-04-18T10:54:33.194Z,17.29
2023-04-18T10:57:03.867Z,16.27
2023-04-18T10:59:33.952Z,16.46
2023-04-18T11:02:24.507Z,16.62
2023-04-18T11:04:54.838Z,16.53
2023-04-18T11:07:40.353Z,16.95
2023-04-18T11:10:09.938Z,17.79
2023-04-18T11:12:40.182Z,18.30
2023-04-18T11:15:21.973Z,18.58
2023-04-18T11:17:58.506Z,18.20
2023-04-18T11:20:27.295Z,17.43
2023-04-18T11:23:00.364Z,17.03
2023-04-18T11:25:34.807Z,16.67
2023-04-18T11:28:04.518Z,16.38
2023-04-18T11:30:40.351Z,16.38
2023-04-18T11:33:09.809Z,15.99
2023-04-18T11:35:42.473Z,16.20
2023-04-18T11:38:13.200Z,15.84
2023-04-18T11:40:48.704Z,15.83
2023-04-18T11:43:21.776Z,15.73
2023-04-18T11:45:57.963Z,15.59
2023-04-18T11:48:42.730Z,15.06
2023-04-18T11:51:38.932Z,15.23
2023-04-18T11:54:40.210Z,15.28
2023-04-18T11:57:22.224Z,15.31
2023-04-18T11:59:55.335Z,15.34
2023-04-18T12:02:26.029Z,15.28
2023-04-18T12:04:59.522Z,15.41
2023-04-18T12:07:42.407Z,15.20
2023-04-18T12:10:28.687Z,15.24
2023-04-18T12:13:00.346Z,15.19
2023-04-18T12:15:30.261Z,15.43
2023-04-18T12:18:05.380Z,15.29
2023-04-18T12:20:39.109Z,15.25
2023-04-18T12:23:08.738Z,15.22
2023-04-18T12:25:37.111Z,15.28
2023-04-18T12:28:15.568Z,15.07
2023-04-18T12:30:43.597Z,15.25
2023-04-18T12:33:11.562Z,15.30
2023-04-18T12:35:39.561Z,14.98
2023-04-18T12:38:07.424Z,15.06
2023-04-18T12:40:35.398Z,14.95
2023-04-18T12:43:04.053Z,15.05
2023-04-18T12:45:32.241Z,15.38
2023-04-18T12:48:00.184Z,15.42
2023-04-18T12:50:28.241Z,15.44
2023-04-18T12:53:00.268Z,15.87
2023-04-18T12:55:29.445Z,15.92
2023-04-18T12:57:58.348Z,16.12
2023-04-18T13:00:29.244Z,16.24
2023-04-18T13:02:58.303Z,16.00
2023-04-18T13:05:32.579Z,15.90
2023-04-18T13:10:33.057Z,16.74
2023-04-18T13:13:01.215Z,16.94
2023-04-18T13:15:29.366Z,16.96
2023-04-18T13:17:57.612Z,16.81
2023-04-18T13:20:25.716Z,16.87
2023-04-18T13:22:53.755Z,16.86
2023-04-18T13:25:21.943Z,16.80
2023-04-18T13:27:52.627Z,16.34
2023-04-18T13:30:20.718Z,16.04
2023-04-18T13:32:48.886Z,15.99
2023-04-18T13:35:16.937Z,15.94
2023-04-18T13:37:44.909Z,15.92
2023-04-18T13:40:13.329Z,15.84
2023-04-18T13:42:41.296Z,15.63
2023-04-18T13:45:09.565Z,15.60
2023-04-18T13:47:37.953Z,15.74
2023-04-18T13:50:06.873Z,15.92
2023-04-18T13:52:35.497Z,15.80
2023-04-18T13:55:04.190Z,15.74
2023-04-18T13:57:33.470Z,15.46
2023-04-18T14:00:01.607Z,15.24
2023-04-18T14:02:41.956Z,14.88
2023-04-18T14:05:10.912Z,14.45
2023-04-18T14:07:38.984Z,14.33
2023-04-18T14:10:07.672Z,14.35
2023-04-18T14:13:01.410Z,13.88
2023-04-18T14:15:29.476Z,13.74
2023-04-18T14:17:57.506Z,13.74
2023-04-18T14:20:26.833Z,13.66
2023-04-18T14:22:54.689Z,13.75
2023-04-18T14:25:23.271Z,13.62
2023-04-18T14:28:04.266Z,13.40
2023-04-18T14:30:32.495Z,13.64
2023-04-18T14:33:00.980Z,13.46
2023-04-18T14:35:29.435Z,13.50
2023-04-18T14:37:57.531Z,13.40
2023-04-18T14:40:25.662Z,13.21
2023-04-18T14:42:53.706Z,13.21
2023-04-18T14:45:22.579Z,12.85
2023-04-18T14:47:51.311Z,12.85
2023-04-18T14:50:19.874Z,12.97
2023-04-18T14:52:47.903Z,13.02
2023-04-18T14:55:16.670Z,12.75
2023-04-18T14:57:45.012Z,12.25
2023-04-18T15:00:15.071Z,12.38
2023-04-18T15:02:43.947Z,12.35
2023-04-18T15:05:13.149Z,12.27
2023-04-18T15:07:43.173Z,12.20
2023-04-18T15:10:15.603Z,12.07
2023-04-18T15:12:43.756Z,12.16
2023-04-18T15:15:11.961Z,12.08
2023-04-18T15:17:40.760Z,12.03
2023-04-18T15:20:10.041Z,11.87
2023-04-18T15:22:38.466Z,11.62
2023-04-18T15:25:07.697Z,11.72
2023-04-18T15:27:36.590Z,11.53
2023-04-18T15:30:05.585Z,11.47
2023-04-18T15:32:34.069Z,11.54
2023-04-18T15:35:03.424Z,11.73
2023-04-18T15:37:31.907Z,11.86
2023-04-18T15:40:01.052Z,11.96
2023-04-18T15:42:30.683Z,11.43
2023-04-18T15:44:59.163Z,11.21
2023-04-18T15:47:27.504Z,11.31
2023-04-18T15:49:55.641Z,11.24
2023-04-18T15:52:23.881Z,11.18
2023-04-18T15:54:52.987Z,11.27
2023-04-18T15:57:22.093Z,11.12
2023-04-18T15:59:50.608Z,10.88
2023-04-18T16:02:19.095Z,10.85
2023-04-18T16:04:47.390Z,11.11
2023-04-18T16:07:16.713Z,11.23
2023-04-18T16:09:45.519Z,11.31
2023-04-18T16:12:13.873Z,11.10
2023-04-18T16:14:42.061Z,11.21
2023-04-18T16:17:10.056Z,11.30
2023-04-18T16:19:40.329Z,11.34
2023-04-18T16:22:08.992Z,11.11
2023-04-18T16:24:37.230Z,11.11
2023-04-18T16:27:06.081Z,11.13
2023-04-18T16:29:35.160Z,11.14
2023-04-18T16:32:04.018Z,11.39
2023-04-18T16:34:34.591Z,11.53
2023-04-18T16:37:03.203Z,11.53
2023-04-18T16:39:31.602Z,11.63
2023-04-18T16:42:00.129Z,11.60
2023-04-18T16:44:29.550Z,11.62
2023-04-18T16:46:59.251Z,11.48
2023-04-18T16:49:28.066Z,11.52
2023-04-18T16:51:56.454Z,11.48
2023-04-18T16:54:24.820Z,11.33
2023-04-18T16:56:53.354Z,11.72
2023-04-18T16:59:22.213Z,11.82
2023-04-18T17:01:50.508Z,11.79
2023-04-18T17:04:18.910Z,11.73
2023-04-18T17:06:47.278Z,11.79
2023-04-18T17:09:15.896Z,11.89
2023-04-18T17:11:44.457Z,11.90
2023-04-18T17:14:13.081Z,11.93
2023-04-18T17:16:42.599Z,11.94
2023-04-18T17:19:11.757Z,11.93
2023-04-18T17:21:40.354Z,11.89
2023-04-18T17:24:09.576Z,11.83
2023-04-18T17:26:39.291Z,11.89
2023-04-18T17:29:07.836Z,11.72
2023-04-18T17:31:36.973Z,11.82
2023-04-18T17:34:06.321Z,11.77
2023-04-18T17:36:34.884Z,11.78
2023-04-18T17:39:06.877Z,11.66
2023-04-18T17:41:39.683Z,11.70
2023-04-18T17:44:08.719Z,11.77
2023-04-18T17:46:37.323Z,11.73
2023-04-18T17:49:05.959Z,11.65
2023-04-18T17:51:35.041Z,11.73
2023-04-18T17:54:03.495Z,11.75
2023-04-18T17:56:32.241Z,11.75
2023-04-18T17:59:00.949Z,11.77
2023-04-18T18:01:30.714Z,11.79
2023-04-18T18:03:59.364Z,11.82
2023-04-18T18:06:28.259Z,11.81
2023-04-18T18:08:57.051Z,11.82
2023-04-18T18:11:25.490Z,11.75
2023-04-18T18:13:55.976Z,11.74
2023-04-18T18:16:24.943Z,11.73
2023-04-18T18:18:53.639Z,11.70
2023-04-18T18:21:21.983Z,11.75
2023-04-18T18:23:50.202Z,11.43
2023-04-18T18:26:18.742Z,11.31
2023-04-18T18:28:48.578Z,10.46
2023-04-18T18:31:17.843Z,11.29
2023-04-18T18:33:46.382Z,11.25
2023-04-18T18:36:14.816Z,11.00
2023-04-18T18:38:43.991Z,10.94
2023-04-18T18:41:12.633Z,10.93
2023-04-18T18:43:41.218Z,11.16
2023-04-18T18:46:10.065Z,11.19
2023-04-18T18:48:39.431Z,11.33
2023-04-18T18:51:08.669Z,11.36
2023-04-18T18:53:38.400Z,11.39
2023-04-18T18:56:09.240Z,11.37
2023-04-18T18:58:37.659Z,11.41
2023-04-18T19:01:07.132Z,11.44
2023-04-18T19:03:36.097Z,11.32
2023-04-18T19:06:06.308Z,11.32
2023-04-18T19:08:35.640Z,11.20
2023-04-18T19:11:04.795Z,11.24
2023-04-18T19:13:33.733Z,11.14
2023-04-18T19:16:02.291Z,11.23
2023-04-18T19:18:31.388Z,11.23
2023-04-18T19:20:59.735Z,11.14
2023-04-18T19:23:28.138Z,11.03
2023-04-18T19:25:57.141Z,11.12
2023-04-18T19:28:26.223Z,10.91
2023-04-18T19:30:54.752Z,10.97
2023-04-18T19:33:24.875Z,10.82
2023-04-18T19:36:02.158Z,10.76
2023-04-18T19:38:31.112Z,10.60
2023-04-18T19:40:59.420Z,10.93
2023-04-18T19:43:27.660Z,10.82
2023-04-18T19:46:05.292Z,10.86
2023-04-18T19:48:33.792Z,10.82
2023-04-18T19:51:04.294Z,10.90
2023-04-18T19:53:32.592Z,10.80
2023-04-18T19:56:02.046Z,10.87
2023-04-18T19:58:45.300Z,10.60
2023-04-18T20:01:15.525Z,10.77
2023-04-18T20:03:44.493Z,10.94
2023-04-18T20:06:13.396Z,10.97
2023-04-18T20:08:42.212Z,10.96
2023-04-18T20:11:11.997Z,11.01
2023-04-18T20:13:40.563Z,11.03
2023-04-18T20:16:09.860Z,11.09
2023-04-18T20:18:41.934Z,11.11
2023-04-18T20:21:11.314Z,11.07
2023-04-18T20:23:42.371Z,11.00
2023-04-18T20:26:10.811Z,10.71
2023-04-18T20:28:39.097Z,10.96
2023-04-18T20:31:07.506Z,11.00
2023-04-18T20:33:36.759Z,10.90
2023-04-18T20:36:06.658Z,11.10
2023-04-18T20:38:34.775Z,10.97
2023-04-18T20:41:03.530Z,11.13
2023-04-18T20:43:36.780Z,11.08
2023-04-18T20:46:05.129Z,10.94
2023-04-18T20:48:33.342Z,11.10
2023-04-18T20:51:01.804Z,11.02
2023-04-18T20:53:30.006Z,11.11
2023-04-18T20:55:57.985Z,11.10
2023-04-18T20:58:26.308Z,11.11
2023-04-18T21:00:54.639Z,11.07
2023-04-18T21:03:23.084Z,11.14
2023-04-18T21:05:51.735Z,11.12
2023-04-18T21:08:20.277Z,11.09
2023-04-18T21:10:48.383Z,11.11
2023-04-18T21:13:16.582Z,11.10
2023-04-18T21:15:44.998Z,11.09
2023-04-18T21:18:13.162Z,11.10
2023-04-18T21:20:41.103Z,11.05
2023-04-18T21:23:09.338Z,11.01
2023-04-18T21:25:37.465Z,11.04
2023-04-18T21:28:05.591Z,11.03
2023-04-18T21:30:34.527Z,10.94
2023-04-18T21:33:03.030Z,10.99
2023-04-18T21:35:31.270Z,10.98
2023-04-18T21:37:59.267Z,10.95
2023-04-18T21:40:27.299Z,10.87
2023-04-18T21:42:55.300Z,10.82
2023-04-18T21:45:23.688Z,10.81
2023-04-18T21:47:52.891Z,10.73
2023-04-18T21:50:21.063Z,10.83
2023-04-18T21:52:49.183Z,10.79
2023-04-18T21:55:18.250Z,10.81
2023-04-18T21:57:46.194Z,10.80
2023-04-18T22:00:14.607Z,10.79
2023-04-18T22:06:04.717Z,10.69
2023-04-18T22:08:36.439Z,10.69
2023-04-18T22:11:05.038Z,10.68
2023-04-18T22:13:33.353Z,10.69
2023-04-18T22:16:03.463Z,10.69
2023-04-18T22:18:35.268Z,10.67
2023-04-18T22:21:04.494Z,10.53
2023-04-18T22:23:32.525Z,10.59
2023-04-18T22:26:00.588Z,10.57
2023-04-18T22:28:31.167Z,10.56
2023-04-18T22:30:59.136Z,10.61
2023-04-18T22:33:27.425Z,10.66
2023-04-18T22:35:55.873Z,10.74
2023-04-18T22:38:27.802Z,10.73
2023-04-18T22:40:55.888Z,10.63
2023-04-18T22:43:25.063Z,10.68
2023-04-18T22:45:53.425Z,10.65
2023-04-18T22:48:21.447Z,10.59
2023-04-18T22:50:50.135Z,10.57
2023-04-18T22:53:18.205Z,10.48
2023-04-18T22:55:46.765Z,10.54
2023-04-18T22:58:15.008Z,10.52
2023-04-18T23:00:43.093Z,10.40
2023-04-18T23:03:11.426Z,10.36
2023-04-18T23:05:40.461Z,10.28
2023-04-18T23:08:08.887Z,10.18
2023-04-18T23:10:36.788Z,10.18
2023-04-18T23:13:04.855Z,10.12
2023-04-18T23:15:32.903Z,10.21
2023-04-18T23:18:01.156Z,10.12
2023-04-18T23:20:29.105Z,10.06
2023-04-18T23:22:57.059Z,10.08
2023-04-18T23:25:24.994Z,10.11
2023-04-18T23:27:52.914Z,10.15
2023-04-18T23:30:20.828Z,10.15
2023-04-18T23:32:48.838Z,10.17
2023-04-18T23:35:16.931Z,10.04
2023-04-18T23:37:44.842Z,10.16
2023-04-18T23:40:12.699Z,10.09
2023-04-18T23:42:40.708Z,10.09
2023-04-18T23:45:08.748Z,10.14
2023-04-18T23:47:36.703Z,10.19
2023-04-18T23:50:05.248Z,10.30
2023-04-18T23:52:33.048Z,10.22
2023-04-18T23:55:01.427Z,10.24
2023-04-18T23:57:29.455Z,10.35
2023-04-18T23:59:57.852Z,10.31
